sensor_id;sensor_type;location;lat;lon;timestamp;pressure;altitude;pressure_sealevel;temperature
11321;BMP180;5715;48.234;14.320;2022-07-29T00:00:38;98383.00;;;26.40
11321;BMP180;5715;48.234;14.320;2022-07-29T00:03:25;98386.00;;;26.30
11321;BMP180;5715;48.234;14.320;2022-07-29T00:06:14;98393.00;;;26.20
11321;BMP180;5715;48.234;14.320;2022-07-29T00:09:02;98388.00;;;26.30
11321;BMP180;5715;48.234;14.320;2022-07-29T00:11:50;98391.00;;;26.20
11321;BMP180;5715;48.234;14.320;2022-07-29T00:14:37;98378.00;;;26.10
11321;BMP180;5715;48.234;14.320;2022-07-29T00:17:25;98382.00;;;26.10
11321;BMP180;5715;48.234;14.320;2022-07-29T00:20:13;98379.00;;;26.10
11321;BMP180;5715;48.234;14.320;2022-07-29T00:23:01;98378.00;;;25.90
11321;BMP180;5715;48.234;14.320;2022-07-29T00:25:48;98378.00;;;25.90
11321;BMP180;5715;48.234;14.320;2022-07-29T00:28:36;98378.00;;;25.90
11321;BMP180;5715;48.234;14.320;2022-07-29T00:31:24;98376.00;;;25.90
11321;BMP180;5715;48.234;14.320;2022-07-29T00:34:12;98378.00;;;26.00
11321;BMP180;5715;48.234;14.320;2022-07-29T00:37:18;98377.00;;;25.90
11321;BMP180;5715;48.234;14.320;2022-07-29T00:40:07;98380.00;;;25.90
11321;BMP180;5715;48.234;14.320;2022-07-29T00:42:54;98374.00;;;25.90
11321;BMP180;5715;48.234;14.320;2022-07-29T00:45:42;98382.00;;;25.90
11321;BMP180;5715;48.234;14.320;2022-07-29T00:48:30;98392.00;;;25.80
11321;BMP180;5715;48.234;14.320;2022-07-29T00:51:18;98392.00;;;25.80
11321;BMP180;5715;48.234;14.320;2022-07-29T00:54:06;98393.00;;;25.80
11321;BMP180;5715;48.234;14.320;2022-07-29T00:56:57;98380.00;;;25.80
11321;BMP180;5715;48.234;14.320;2022-07-29T00:59:45;98388.00;;;25.80
11321;BMP180;5715;48.234;14.320;2022-07-29T01:02:33;98383.00;;;25.40
11321;BMP180;5715;48.234;14.320;2022-07-29T01:05:24;98385.00;;;25.50
11321;BMP180;5715;48.234;14.320;2022-07-29T01:08:34;98379.00;;;25.40
11321;BMP180;5715;48.234;14.320;2022-07-29T01:11:22;98376.00;;;25.40
11321;BMP180;5715;48.234;14.320;2022-07-29T01:14:11;98397.00;;;25.50
11321;BMP180;5715;48.234;14.320;2022-07-29T01:17:18;98401.00;;;25.40
11321;BMP180;5715;48.234;14.320;2022-07-29T01:26:45;98412.00;;;25.60
11321;BMP180;5715;48.234;14.320;2022-07-29T01:29:44;98416.00;;;25.70
11321;BMP180;5715;48.234;14.320;2022-07-29T01:32:38;98422.00;;;25.90
11321;BMP180;5715;48.234;14.320;2022-07-29T01:35:36;98419.00;;;25.80
11321;BMP180;5715;48.234;14.320;2022-07-29T01:38:27;98424.00;;;25.80
11321;BMP180;5715;48.234;14.320;2022-07-29T01:41:18;98430.00;;;25.80
11321;BMP180;5715;48.234;14.320;2022-07-29T01:44:34;98422.00;;;25.80
11321;BMP180;5715;48.234;14.320;2022-07-29T01:47:31;98423.00;;;25.90
11321;BMP180;5715;48.234;14.320;2022-07-29T01:50:34;98416.00;;;26.10
11321;BMP180;5715;48.234;14.320;2022-07-29T01:53:34;98406.00;;;26.10
11321;BMP180;5715;48.234;14.320;2022-07-29T01:56:25;98419.00;;;26.10
11321;BMP180;5715;48.234;14.320;2022-07-29T01:59:19;98413.00;;;26.10
11321;BMP180;5715;48.234;14.320;2022-07-29T02:02:10;98412.00;;;26.20
11321;BMP180;5715;48.234;14.320;2022-07-29T02:05:02;98415.00;;;26.10
11321;BMP180;5715;48.234;14.320;2022-07-29T02:07:52;98411.00;;;26.20
11321;BMP180;5715;48.234;14.320;2022-07-29T02:10:43;98409.00;;;26.00
11321;BMP180;5715;48.234;14.320;2022-07-29T02:13:35;98403.00;;;25.80
11321;BMP180;5715;48.234;14.320;2022-07-29T02:16:27;98413.00;;;25.90
11321;BMP180;5715;48.234;14.320;2022-07-29T02:19:19;98424.00;;;25.80
11321;BMP180;5715;48.234;14.320;2022-07-29T02:22:10;98422.00;;;25.90
11321;BMP180;5715;48.234;14.320;2022-07-29T02:24:59;98425.00;;;25.80
11321;BMP180;5715;48.234;14.320;2022-07-29T02:27:51;98427.00;;;25.80
11321;BMP180;5715;48.234;14.320;2022-07-29T02:30:41;98420.00;;;25.70
11321;BMP180;5715;48.234;14.320;2022-07-29T02:33:31;98418.00;;;25.80
11321;BMP180;5715;48.234;14.320;2022-07-29T02:36:22;98411.00;;;26.00
11321;BMP180;5715;48.234;14.320;2022-07-29T02:39:13;98411.00;;;26.10
11321;BMP180;5715;48.234;14.320;2022-07-29T02:42:07;98401.00;;;26.10
11321;BMP180;5715;48.234;14.320;2022-07-29T02:44:56;98404.00;;;26.20
11321;BMP180;5715;48.234;14.320;2022-07-29T02:47:49;98402.00;;;26.30
11321;BMP180;5715;48.234;14.320;2022-07-29T02:50:48;98397.00;;;26.30
11321;BMP180;5715;48.234;14.320;2022-07-29T02:53:41;98395.00;;;26.40
11321;BMP180;5715;48.234;14.320;2022-07-29T02:56:33;98390.00;;;26.20
11321;BMP180;5715;48.234;14.320;2022-07-29T02:59:27;98398.00;;;26.00
11321;BMP180;5715;48.234;14.320;2022-07-29T03:02:18;98400.00;;;25.90
11321;BMP180;5715;48.234;14.320;2022-07-29T03:05:15;98401.00;;;26.00
11321;BMP180;5715;48.234;14.320;2022-07-29T03:08:07;98404.00;;;26.00
11321;BMP180;5715;48.234;14.320;2022-07-29T03:10:57;98398.00;;;26.00
11321;BMP180;5715;48.234;14.320;2022-07-29T03:13:45;98397.00;;;25.80
11321;BMP180;5715;48.234;14.320;2022-07-29T03:16:34;98402.00;;;26.10
11321;BMP180;5715;48.234;14.320;2022-07-29T03:19:28;98405.00;;;26.10
11321;BMP180;5715;48.234;14.320;2022-07-29T03:22:15;98400.00;;;26.20
11321;BMP180;5715;48.234;14.320;2022-07-29T03:25:13;98392.00;;;26.10
11321;BMP180;5715;48.234;14.320;2022-07-29T03:28:01;98396.00;;;26.30
11321;BMP180;5715;48.234;14.320;2022-07-29T03:30:50;98387.00;;;26.30
11321;BMP180;5715;48.234;14.320;2022-07-29T03:33:37;98401.00;;;26.30
11321;BMP180;5715;48.234;14.320;2022-07-29T03:36:25;98402.00;;;26.40
11321;BMP180;5715;48.234;14.320;2022-07-29T03:39:19;98394.00;;;26.20
11321;BMP180;5715;48.234;14.320;2022-07-29T03:42:13;98394.00;;;26.10
11321;BMP180;5715;48.234;14.320;2022-07-29T03:45:07;98400.00;;;26.30
11321;BMP180;5715;48.234;14.320;2022-07-29T03:48:05;98405.00;;;26.30
11321;BMP180;5715;48.234;14.320;2022-07-29T03:50:53;98409.00;;;26.20
11321;BMP180;5715;48.234;14.320;2022-07-29T03:53:41;98403.00;;;26.40
11321;BMP180;5715;48.234;14.320;2022-07-29T03:56:29;98403.00;;;26.40
11321;BMP180;5715;48.234;14.320;2022-07-29T03:59:20;98408.00;;;26.40
11321;BMP180;5715;48.234;14.320;2022-07-29T04:02:11;98406.00;;;26.20
11321;BMP180;5715;48.234;14.320;2022-07-29T04:05:03;98406.00;;;26.20
11321;BMP180;5715;48.234;14.320;2022-07-29T04:07:51;98402.00;;;26.40
11321;BMP180;5715;48.234;14.320;2022-07-29T04:10:38;98408.00;;;26.30
11321;BMP180;5715;48.234;14.320;2022-07-29T04:13:26;98403.00;;;26.40
11321;BMP180;5715;48.234;14.320;2022-07-29T04:16:13;98408.00;;;26.50
11321;BMP180;5715;48.234;14.320;2022-07-29T04:19:01;98414.00;;;26.70
11321;BMP180;5715;48.234;14.320;2022-07-29T04:21:49;98409.00;;;26.90
11321;BMP180;5715;48.234;14.320;2022-07-29T04:24:37;98416.00;;;27.00
11321;BMP180;5715;48.234;14.320;2022-07-29T04:27:30;98412.00;;;27.20
11321;BMP180;5715;48.234;14.320;2022-07-29T04:30:18;98415.00;;;27.20
11321;BMP180;5715;48.234;14.320;2022-07-29T04:33:07;98419.00;;;27.40
11321;BMP180;5715;48.234;14.320;2022-07-29T04:35:55;98414.00;;;27.60
11321;BMP180;5715;48.234;14.320;2022-07-29T04:38:42;98416.00;;;27.70
11321;BMP180;5715;48.234;14.320;2022-07-29T04:41:30;98422.00;;;27.70
11321;BMP180;5715;48.234;14.320;2022-07-29T04:44:19;98421.00;;;27.80
11321;BMP180;5715;48.234;14.320;2022-07-29T04:47:14;98424.00;;;27.90
11321;BMP180;5715;48.234;14.320;2022-07-29T04:50:03;98426.00;;;27.80
11321;BMP180;5715;48.234;14.320;2022-07-29T04:52:50;98429.00;;;27.70
11321;BMP180;5715;48.234;14.320;2022-07-29T04:55:38;98433.00;;;27.80
11321;BMP180;5715;48.234;14.320;2022-07-29T04:58:26;98424.00;;;27.60
11321;BMP180;5715;48.234;14.320;2022-07-29T05:01:14;98441.00;;;27.50
11321;BMP180;5715;48.234;14.320;2022-07-29T05:04:02;98441.00;;;27.50
11321;BMP180;5715;48.234;14.320;2022-07-29T05:06:50;98439.00;;;27.40
11321;BMP180;5715;48.234;14.320;2022-07-29T05:09:37;98441.00;;;27.50
11321;BMP180;5715;48.234;14.320;2022-07-29T05:12:25;98431.00;;;27.60
11321;BMP180;5715;48.234;14.320;2022-07-29T05:15:13;98431.00;;;27.50
11321;BMP180;5715;48.234;14.320;2022-07-29T05:18:02;98440.00;;;27.50
11321;BMP180;5715;48.234;14.320;2022-07-29T05:20:49;98434.00;;;27.50
11321;BMP180;5715;48.234;14.320;2022-07-29T05:23:37;98441.00;;;27.70
11321;BMP180;5715;48.234;14.320;2022-07-29T05:26:25;98439.00;;;27.70
11321;BMP180;5715;48.234;14.320;2022-07-29T05:29:12;98440.00;;;27.80
11321;BMP180;5715;48.234;14.320;2022-07-29T05:32:20;98442.00;;;27.60
11321;BMP180;5715;48.234;14.320;2022-07-29T05:35:08;98442.00;;;27.70
11321;BMP180;5715;48.234;14.320;2022-07-29T05:37:56;98438.00;;;27.90
11321;BMP180;5715;48.234;14.320;2022-07-29T05:40:43;98450.00;;;28.00
11321;BMP180;5715;48.234;14.320;2022-07-29T05:43:32;98443.00;;;28.10
11321;BMP180;5715;48.234;14.320;2022-07-29T05:46:19;98447.00;;;28.20
11321;BMP180;5715;48.234;14.320;2022-07-29T05:49:07;98440.00;;;28.10
11321;BMP180;5715;48.234;14.320;2022-07-29T05:51:55;98435.00;;;28.40
11321;BMP180;5715;48.234;14.320;2022-07-29T05:54:43;98435.00;;;28.40
11321;BMP180;5715;48.234;14.320;2022-07-29T05:57:31;98443.00;;;28.40
11321;BMP180;5715;48.234;14.320;2022-07-29T06:00:18;98437.00;;;28.40
11321;BMP180;5715;48.234;14.320;2022-07-29T06:03:06;98433.00;;;28.40
11321;BMP180;5715;48.234;14.320;2022-07-29T06:05:54;98437.00;;;28.50
11321;BMP180;5715;48.234;14.320;2022-07-29T06:08:41;98432.00;;;28.40
11321;BMP180;5715;48.234;14.320;2022-07-29T06:11:29;98432.00;;;28.60
11321;BMP180;5715;48.234;14.320;2022-07-29T06:14:17;98432.00;;;28.70
11321;BMP180;5715;48.234;14.320;2022-07-29T06:17:05;98431.00;;;28.80
11321;BMP180;5715;48.234;14.320;2022-07-29T06:19:53;98433.00;;;28.80
11321;BMP180;5715;48.234;14.320;2022-07-29T06:22:43;98434.00;;;28.80
11321;BMP180;5715;48.234;14.320;2022-07-29T06:25:31;98432.00;;;28.90
11321;BMP180;5715;48.234;14.320;2022-07-29T06:28:25;98432.00;;;29.00
11321;BMP180;5715;48.234;14.320;2022-07-29T06:31:13;98435.00;;;29.00
11321;BMP180;5715;48.234;14.320;2022-07-29T06:34:01;98446.00;;;29.10
11321;BMP180;5715;48.234;14.320;2022-07-29T06:36:49;98449.00;;;29.20
11321;BMP180;5715;48.234;14.320;2022-07-29T06:39:38;98453.00;;;29.30
11321;BMP180;5715;48.234;14.320;2022-07-29T06:42:26;98451.00;;;29.20
11321;BMP180;5715;48.234;14.320;2022-07-29T06:45:13;98456.00;;;29.40
11321;BMP180;5715;48.234;14.320;2022-07-29T06:48:01;98462.00;;;29.70
11321;BMP180;5715;48.234;14.320;2022-07-29T06:50:49;98460.00;;;29.80
11321;BMP180;5715;48.234;14.320;2022-07-29T06:53:38;98463.00;;;29.80
11321;BMP180;5715;48.234;14.320;2022-07-29T06:56:45;98465.00;;;29.80
11321;BMP180;5715;48.234;14.320;2022-07-29T06:59:33;98478.00;;;29.90
11321;BMP180;5715;48.234;14.320;2022-07-29T07:02:22;98474.00;;;29.90
11321;BMP180;5715;48.234;14.320;2022-07-29T07:05:10;98466.00;;;30.00
11321;BMP180;5715;48.234;14.320;2022-07-29T07:07:58;98464.00;;;29.80
11321;BMP180;5715;48.234;14.320;2022-07-29T07:10:45;98463.00;;;29.80
11321;BMP180;5715;48.234;14.320;2022-07-29T07:13:34;98477.00;;;29.70
11321;BMP180;5715;48.234;14.320;2022-07-29T07:16:23;98467.00;;;29.40
11321;BMP180;5715;48.234;14.320;2022-07-29T07:19:10;98471.00;;;29.50
11321;BMP180;5715;48.234;14.320;2022-07-29T07:22:00;98479.00;;;29.10
11321;BMP180;5715;48.234;14.320;2022-07-29T07:24:50;98478.00;;;29.20
11321;BMP180;5715;48.234;14.320;2022-07-29T07:27:39;98482.00;;;29.10
11321;BMP180;5715;48.234;14.320;2022-07-29T07:30:27;98475.00;;;29.10
11321;BMP180;5715;48.234;14.320;2022-07-29T07:33:15;98482.00;;;29.10
11321;BMP180;5715;48.234;14.320;2022-07-29T07:36:03;98480.00;;;29.10
11321;BMP180;5715;48.234;14.320;2022-07-29T07:38:51;98480.00;;;29.00
11321;BMP180;5715;48.234;14.320;2022-07-29T07:41:38;98474.00;;;29.20
11321;BMP180;5715;48.234;14.320;2022-07-29T07:44:26;98474.00;;;29.10
11321;BMP180;5715;48.234;14.320;2022-07-29T07:47:15;98473.00;;;29.20
11321;BMP180;5715;48.234;14.320;2022-07-29T07:50:12;98471.00;;;29.10
11321;BMP180;5715;48.234;14.320;2022-07-29T07:53:05;98471.00;;;29.30
11321;BMP180;5715;48.234;14.320;2022-07-29T07:55:53;98474.00;;;29.40
11321;BMP180;5715;48.234;14.320;2022-07-29T07:58:58;98477.00;;;29.50
11321;BMP180;5715;48.234;14.320;2022-07-29T08:01:46;98477.00;;;29.50
11321;BMP180;5715;48.234;14.320;2022-07-29T08:04:43;98486.00;;;29.60
11321;BMP180;5715;48.234;14.320;2022-07-29T08:07:30;98482.00;;;29.50
11321;BMP180;5715;48.234;14.320;2022-07-29T08:10:19;98487.00;;;29.70
11321;BMP180;5715;48.234;14.320;2022-07-29T08:13:27;98489.00;;;29.60
11321;BMP180;5715;48.234;14.320;2022-07-29T08:16:15;98482.00;;;29.80
11321;BMP180;5715;48.234;14.320;2022-07-29T08:19:03;98486.00;;;29.90
11321;BMP180;5715;48.234;14.320;2022-07-29T08:21:51;98490.00;;;30.00
11321;BMP180;5715;48.234;14.320;2022-07-29T08:24:41;98488.00;;;29.90
11321;BMP180;5715;48.234;14.320;2022-07-29T08:27:34;98476.00;;;30.20
11321;BMP180;5715;48.234;14.320;2022-07-29T08:30:30;98482.00;;;30.40
11321;BMP180;5715;48.234;14.320;2022-07-29T08:33:19;98497.00;;;30.30
11321;BMP180;5715;48.234;14.320;2022-07-29T08:36:07;98490.00;;;30.30
11321;BMP180;5715;48.234;14.320;2022-07-29T08:38:55;98497.00;;;30.30
11321;BMP180;5715;48.234;14.320;2022-07-29T08:41:43;98489.00;;;30.70
11321;BMP180;5715;48.234;14.320;2022-07-29T08:44:44;98491.00;;;30.50
11321;BMP180;5715;48.234;14.320;2022-07-29T08:47:33;98489.00;;;30.80
11321;BMP180;5715;48.234;14.320;2022-07-29T08:50:23;98486.00;;;30.80
11321;BMP180;5715;48.234;14.320;2022-07-29T08:53:14;98496.00;;;30.70
11321;BMP180;5715;48.234;14.320;2022-07-29T08:56:02;98492.00;;;30.80
11321;BMP180;5715;48.234;14.320;2022-07-29T08:58:51;98490.00;;;30.90
11321;BMP180;5715;48.234;14.320;2022-07-29T09:01:40;98494.00;;;30.80
11321;BMP180;5715;48.234;14.320;2022-07-29T09:04:35;98494.00;;;30.80
11321;BMP180;5715;48.234;14.320;2022-07-29T09:07:23;98482.00;;;30.70
11321;BMP180;5715;48.234;14.320;2022-07-29T09:10:21;98487.00;;;30.80
11321;BMP180;5715;48.234;14.320;2022-07-29T09:13:09;98477.00;;;30.90
11321;BMP180;5715;48.234;14.320;2022-07-29T09:15:57;98484.00;;;31.00
11321;BMP180;5715;48.234;14.320;2022-07-29T09:18:46;98482.00;;;31.30
11321;BMP180;5715;48.234;14.320;2022-07-29T09:21:40;98486.00;;;31.70
11321;BMP180;5715;48.234;14.320;2022-07-29T09:24:49;98489.00;;;31.80
11321;BMP180;5715;48.234;14.320;2022-07-29T09:27:38;98485.00;;;32.20
11321;BMP180;5715;48.234;14.320;2022-07-29T09:30:26;98484.00;;;32.20
11321;BMP180;5715;48.234;14.320;2022-07-29T09:33:18;98501.00;;;32.40
11321;BMP180;5715;48.234;14.320;2022-07-29T09:36:09;98490.00;;;32.50
11321;BMP180;5715;48.234;14.320;2022-07-29T09:39:01;98490.00;;;32.90
11321;BMP180;5715;48.234;14.320;2022-07-29T09:41:54;98485.00;;;33.00
11321;BMP180;5715;48.234;14.320;2022-07-29T09:44:48;98496.00;;;33.20
11321;BMP180;5715;48.234;14.320;2022-07-29T09:47:46;98488.00;;;33.10
11321;BMP180;5715;48.234;14.320;2022-07-29T09:50:46;98482.00;;;33.10
11321;BMP180;5715;48.234;14.320;2022-07-29T09:53:37;98488.00;;;33.20
11321;BMP180;5715;48.234;14.320;2022-07-29T09:56:42;98484.00;;;33.20
11321;BMP180;5715;48.234;14.320;2022-07-29T09:59:30;98491.00;;;33.20
11321;BMP180;5715;48.234;14.320;2022-07-29T10:02:18;98484.00;;;33.30
11321;BMP180;5715;48.234;14.320;2022-07-29T10:05:26;98486.00;;;33.30
11321;BMP180;5715;48.234;14.320;2022-07-29T10:08:26;98483.00;;;33.40
11321;BMP180;5715;48.234;14.320;2022-07-29T10:11:18;98486.00;;;33.80
11321;BMP180;5715;48.234;14.320;2022-07-29T10:14:06;98472.00;;;33.40
11321;BMP180;5715;48.234;14.320;2022-07-29T10:16:55;98476.00;;;33.90
11321;BMP180;5715;48.234;14.320;2022-07-29T10:19:43;98475.00;;;33.50
11321;BMP180;5715;48.234;14.320;2022-07-29T10:22:31;98477.00;;;33.50
11321;BMP180;5715;48.234;14.320;2022-07-29T10:25:39;98474.00;;;34.40
11321;BMP180;5715;48.234;14.320;2022-07-29T10:28:32;98474.00;;;34.70
11321;BMP180;5715;48.234;14.320;2022-07-29T10:31:29;98474.00;;;35.00
11321;BMP180;5715;48.234;14.320;2022-07-29T10:34:44;98467.00;;;35.30
11321;BMP180;5715;48.234;14.320;2022-07-29T10:42:24;98460.00;;;34.00
11321;BMP180;5715;48.234;14.320;2022-07-29T10:44:45;98464.00;;;33.80
11321;BMP180;5715;48.234;14.320;2022-07-29T10:47:34;98462.00;;;35.00
11321;BMP180;5715;48.234;14.320;2022-07-29T10:50:22;98459.00;;;35.20
11321;BMP180;5715;48.234;14.320;2022-07-29T10:53:10;98459.00;;;35.40
11321;BMP180;5715;48.234;14.320;2022-07-29T10:56:00;98464.00;;;35.20
11321;BMP180;5715;48.234;14.320;2022-07-29T11:05:29;98464.00;;;35.00
11321;BMP180;5715;48.234;14.320;2022-07-29T11:08:27;98466.00;;;35.30
11321;BMP180;5715;48.234;14.320;2022-07-29T11:14:16;98467.00;;;35.70
11321;BMP180;5715;48.234;14.320;2022-07-29T11:17:05;98465.00;;;36.00
11321;BMP180;5715;48.234;14.320;2022-07-29T11:20:43;98458.00;;;36.40
11321;BMP180;5715;48.234;14.320;2022-07-29T11:23:35;98458.00;;;36.20
11321;BMP180;5715;48.234;14.320;2022-07-29T11:26:24;98443.00;;;35.20
11321;BMP180;5715;48.234;14.320;2022-07-29T11:29:21;98452.00;;;36.40
11321;BMP180;5715;48.234;14.320;2022-07-29T11:32:15;98448.00;;;36.30
11321;BMP180;5715;48.234;14.320;2022-07-29T11:35:23;98452.00;;;36.50
11321;BMP180;5715;48.234;14.320;2022-07-29T11:38:27;98452.00;;;36.90
11321;BMP180;5715;48.234;14.320;2022-07-29T11:41:26;98445.00;;;34.80
11321;BMP180;5715;48.234;14.320;2022-07-29T11:44:17;98446.00;;;35.70
11321;BMP180;5715;48.234;14.320;2022-07-29T11:47:07;98439.00;;;36.20
11321;BMP180;5715;48.234;14.320;2022-07-29T11:49:59;98435.00;;;36.70
11321;BMP180;5715;48.234;14.320;2022-07-29T11:52:48;98438.00;;;36.80
11321;BMP180;5715;48.234;14.320;2022-07-29T11:55:39;98438.00;;;36.70
11321;BMP180;5715;48.234;14.320;2022-07-29T11:58:38;98424.00;;;36.50
11321;BMP180;5715;48.234;14.320;2022-07-29T12:01:27;98423.00;;;35.60
11321;BMP180;5715;48.234;14.320;2022-07-29T12:04:14;98427.00;;;36.80
11321;BMP180;5715;48.234;14.320;2022-07-29T12:07:06;98424.00;;;36.50
11321;BMP180;5715;48.234;14.320;2022-07-29T12:09:59;98421.00;;;36.70
11321;BMP180;5715;48.234;14.320;2022-07-29T12:12:52;98431.00;;;37.50
11321;BMP180;5715;48.234;14.320;2022-07-29T12:15:55;98415.00;;;37.50
11321;BMP180;5715;48.234;14.320;2022-07-29T12:19:00;98403.00;;;38.10
11321;BMP180;5715;48.234;14.320;2022-07-29T12:21:53;98405.00;;;38.10
11321;BMP180;5715;48.234;14.320;2022-07-29T12:24:45;98403.00;;;38.00
11321;BMP180;5715;48.234;14.320;2022-07-29T12:27:33;98400.00;;;38.20
11321;BMP180;5715;48.234;14.320;2022-07-29T12:30:46;98391.00;;;36.80
11321;BMP180;5715;48.234;14.320;2022-07-29T12:33:38;98391.00;;;37.10
11321;BMP180;5715;48.234;14.320;2022-07-29T12:36:26;98387.00;;;37.20
11321;BMP180;5715;48.234;14.320;2022-07-29T12:39:17;98383.00;;;36.80
11321;BMP180;5715;48.234;14.320;2022-07-29T12:42:15;98381.00;;;37.00
11321;BMP180;5715;48.234;14.320;2022-07-29T12:45:06;98372.00;;;37.20
11321;BMP180;5715;48.234;14.320;2022-07-29T12:47:55;98371.00;;;37.40
11321;BMP180;5715;48.234;14.320;2022-07-29T12:51:01;98363.00;;;37.30
11321;BMP180;5715;48.234;14.320;2022-07-29T12:57:00;98358.00;;;38.00
11321;BMP180;5715;48.234;14.320;2022-07-29T13:00:05;98353.00;;;37.90
11321;BMP180;5715;48.234;14.320;2022-07-29T13:02:59;98354.00;;;37.90
11321;BMP180;5715;48.234;14.320;2022-07-29T13:05:46;98358.00;;;38.00
11321;BMP180;5715;48.234;14.320;2022-07-29T13:08:36;98357.00;;;37.80
11321;BMP180;5715;48.234;14.320;2022-07-29T13:11:38;98356.00;;;37.70
11321;BMP180;5715;48.234;14.320;2022-07-29T13:14:35;98346.00;;;37.90
11321;BMP180;5715;48.234;14.320;2022-07-29T13:17:23;98355.00;;;38.10
11321;BMP180;5715;48.234;14.320;2022-07-29T13:20:12;98354.00;;;38.00
11321;BMP180;5715;48.234;14.320;2022-07-29T13:23:03;98358.00;;;37.70
11321;BMP180;5715;48.234;14.320;2022-07-29T13:25:51;98353.00;;;38.00
11321;BMP180;5715;48.234;14.320;2022-07-29T13:28:40;98347.00;;;38.10
11321;BMP180;5715;48.234;14.320;2022-07-29T13:31:30;98362.00;;;38.40
11321;BMP180;5715;48.234;14.320;2022-07-29T13:34:18;98355.00;;;38.40
11321;BMP180;5715;48.234;14.320;2022-07-29T13:37:09;98355.00;;;38.50
11321;BMP180;5715;48.234;14.320;2022-07-29T13:39:57;98348.00;;;38.70
11321;BMP180;5715;48.234;14.320;2022-07-29T13:42:45;98354.00;;;38.30
11321;BMP180;5715;48.234;14.320;2022-07-29T13:45:33;98346.00;;;38.40
11321;BMP180;5715;48.234;14.320;2022-07-29T13:48:20;98341.00;;;38.30
11321;BMP180;5715;48.234;14.320;2022-07-29T13:51:08;98336.00;;;38.70
11321;BMP180;5715;48.234;14.320;2022-07-29T13:53:57;98346.00;;;39.00
11321;BMP180;5715;48.234;14.320;2022-07-29T13:56:45;98345.00;;;38.50
11321;BMP180;5715;48.234;14.320;2022-07-29T13:59:33;98339.00;;;38.70
11321;BMP180;5715;48.234;14.320;2022-07-29T14:02:22;98328.00;;;39.00
11321;BMP180;5715;48.234;14.320;2022-07-29T14:05:12;98321.00;;;38.60
11321;BMP180;5715;48.234;14.320;2022-07-29T14:07:59;98311.00;;;38.90
11321;BMP180;5715;48.234;14.320;2022-07-29T14:10:47;98308.00;;;39.00
11321;BMP180;5715;48.234;14.320;2022-07-29T14:13:37;98307.00;;;39.00
11321;BMP180;5715;48.234;14.320;2022-07-29T14:16:26;98305.00;;;38.80
11321;BMP180;5715;48.234;14.320;2022-07-29T14:19:13;98299.00;;;39.20
11321;BMP180;5715;48.234;14.320;2022-07-29T14:22:03;98301.00;;;39.10
11321;BMP180;5715;48.234;14.320;2022-07-29T14:24:53;98295.00;;;38.80
11321;BMP180;5715;48.234;14.320;2022-07-29T14:27:43;98299.00;;;39.00
11321;BMP180;5715;48.234;14.320;2022-07-29T14:30:31;98302.00;;;38.80
11321;BMP180;5715;48.234;14.320;2022-07-29T14:33:18;98291.00;;;38.50
11321;BMP180;5715;48.234;14.320;2022-07-29T14:36:06;98298.00;;;38.80
11321;BMP180;5715;48.234;14.320;2022-07-29T14:38:53;98292.00;;;38.50
11321;BMP180;5715;48.234;14.320;2022-07-29T14:41:42;98297.00;;;38.60
11321;BMP180;5715;48.234;14.320;2022-07-29T14:44:32;98291.00;;;38.20
11321;BMP180;5715;48.234;14.320;2022-07-29T14:47:20;98291.00;;;38.40
11321;BMP180;5715;48.234;14.320;2022-07-29T14:50:10;98295.00;;;38.30
11321;BMP180;5715;48.234;14.320;2022-07-29T14:52:59;98286.00;;;38.10
11321;BMP180;5715;48.234;14.320;2022-07-29T14:55:46;98290.00;;;38.10
11321;BMP180;5715;48.234;14.320;2022-07-29T14:58:34;98289.00;;;38.10
11321;BMP180;5715;48.234;14.320;2022-07-29T15:01:24;98288.00;;;38.40
11321;BMP180;5715;48.234;14.320;2022-07-29T15:04:12;98283.00;;;38.20
11321;BMP180;5715;48.234;14.320;2022-07-29T15:06:59;98291.00;;;37.90
11321;BMP180;5715;48.234;14.320;2022-07-29T15:09:47;98287.00;;;37.90
11321;BMP180;5715;48.234;14.320;2022-07-29T15:12:36;98285.00;;;37.90
11321;BMP180;5715;48.234;14.320;2022-07-29T15:15:24;98280.00;;;37.90
11321;BMP180;5715;48.234;14.320;2022-07-29T15:18:12;98289.00;;;37.50
11321;BMP180;5715;48.234;14.320;2022-07-29T15:20:59;98280.00;;;37.70
11321;BMP180;5715;48.234;14.320;2022-07-29T15:24:01;98275.00;;;37.40
11321;BMP180;5715;48.234;14.320;2022-07-29T15:26:52;98271.00;;;37.90
11321;BMP180;5715;48.234;14.320;2022-07-29T15:29:41;98270.00;;;38.10
11321;BMP180;5715;48.234;14.320;2022-07-29T15:32:29;98267.00;;;38.30
11321;BMP180;5715;48.234;14.320;2022-07-29T15:35:24;98265.00;;;38.30
11321;BMP180;5715;48.234;14.320;2022-07-29T15:38:16;98262.00;;;38.50
11321;BMP180;5715;48.234;14.320;2022-07-29T15:41:03;98259.00;;;38.20
11321;BMP180;5715;48.234;14.320;2022-07-29T15:43:51;98257.00;;;38.50
11321;BMP180;5715;48.234;14.320;2022-07-29T15:46:42;98248.00;;;38.40
11321;BMP180;5715;48.234;14.320;2022-07-29T15:49:49;98240.00;;;38.20
11321;BMP180;5715;48.234;14.320;2022-07-29T15:52:37;98241.00;;;38.10
11321;BMP180;5715;48.234;14.320;2022-07-29T15:55:30;98241.00;;;38.20
11321;BMP180;5715;48.234;14.320;2022-07-29T15:58:18;98252.00;;;37.80
11321;BMP180;5715;48.234;14.320;2022-07-29T16:01:06;98244.00;;;37.90
11321;BMP180;5715;48.234;14.320;2022-07-29T16:03:53;98245.00;;;37.90
11321;BMP180;5715;48.234;14.320;2022-07-29T16:06:45;98246.00;;;37.60
11321;BMP180;5715;48.234;14.320;2022-07-29T16:09:33;98242.00;;;37.70
11321;BMP180;5715;48.234;14.320;2022-07-29T16:12:20;98238.00;;;37.80
11321;BMP180;5715;48.234;14.320;2022-07-29T16:15:08;98234.00;;;37.90
11321;BMP180;5715;48.234;14.320;2022-07-29T16:17:57;98226.00;;;37.80
11321;BMP180;5715;48.234;14.320;2022-07-29T16:20:45;98224.00;;;37.40
11321;BMP180;5715;48.234;14.320;2022-07-29T16:23:32;98228.00;;;37.70
11321;BMP180;5715;48.234;14.320;2022-07-29T16:26:20;98225.00;;;38.00
11321;BMP180;5715;48.234;14.320;2022-07-29T16:29:07;98230.00;;;37.80
11321;BMP180;5715;48.234;14.320;2022-07-29T16:31:55;98226.00;;;38.10
11321;BMP180;5715;48.234;14.320;2022-07-29T16:34:43;98223.00;;;38.00
11321;BMP180;5715;48.234;14.320;2022-07-29T16:37:33;98221.00;;;38.00
11321;BMP180;5715;48.234;14.320;2022-07-29T16:40:21;98211.00;;;38.10
11321;BMP180;5715;48.234;14.320;2022-07-29T16:43:09;98210.00;;;37.50
11321;BMP180;5715;48.234;14.320;2022-07-29T16:45:57;98213.00;;;37.40
11321;BMP180;5715;48.234;14.320;2022-07-29T16:48:46;98213.00;;;37.40